Latest Weather Observations for Esperance Airport
Issued at 3:13 am WST Thursday 3 September 2026 (issued every 10 minutes, with the page automatically refreshed every 10 minutes)
| Station Details | ID: 009542 | Name: ESPERANCE AERO | Lat: -33.68 | Lon: 121.83 | Height: 142.0 m |
| Date/Time WST |
Temp °C |
App Temp °C |
Dew Point °C |
Rel Hum % |
Delta-T °C |
Wind | Press QNH hPa |
Press MSL hPa |
Rain since 9am mm |
|||||
|---|---|---|---|---|---|---|---|---|---|---|---|---|---|---|
| Dir | Spd km/h |
Gust km/h |
Spd kts |
Gust kts |
||||||||||
| 03/03:00am | 12.1 | 10.9 | 11.5 | 96 | 0.3 | - | 9 | 9 | 5 | 5 | 1019.9 | 1019.8 | 1.8 | |
| 03/02:55am | 12.1 | 11.2 | 11.5 | 96 | 0.3 | - | 7 | 9 | 4 | 5 | 1019.9 | 1019.8 | 1.8 | |
| 03/02:30am | 12.0 | - | 11.4 | 96 | 0.3 | - | - | - | - | - | 1020.2 | 1020.1 | 1.8 | |
| 03/02:00am | 12.0 | - | 11.4 | 96 | 0.3 | - | - | - | - | - | 1020.4 | 1020.4 | 1.8 | |
| 03/01:30am | 12.0 | - | 11.4 | 96 | 0.3 | - | - | - | - | - | 1020.5 | 1020.5 | 1.8 | |
| 03/01:00am | 11.7 | - | 11.1 | 96 | 0.3 | - | - | - | - | - | 1020.6 | 1020.6 | 1.8 | |
| 03/12:40am | 11.9 | - | 11.3 | 96 | 0.3 | - | - | - | - | - | 1020.5 | 1020.5 | 1.8 | |
| 03/12:30am | 11.9 | - | 11.3 | 96 | 0.3 | - | - | - | - | - | 1020.4 | 1020.4 | 1.8 | |
| 03/12:00am | 12.4 | - | 11.8 | 96 | 0.3 | - | - | - | - | - | 1020.6 | 1020.6 | 1.8 | |
| Date/Time WST |
Temp °C |
App Temp °C |
Dew Point °C |
Rel Hum % |
Delta-T °C |
Wind | Press QNH hPa |
Press MSL hPa |
Rain since 9am mm |
|||||
|---|---|---|---|---|---|---|---|---|---|---|---|---|---|---|
| Dir | Spd km/h |
Gust km/h |
Spd kts |
Gust kts |
||||||||||
| 02/11:52pm | 12.4 | - | 11.8 | 96 | 0.3 | - | - | - | - | - | 1020.7 | 1020.7 | 1.8 | |
| 02/11:36pm | 12.4 | - | 11.8 | 96 | 0.3 | - | - | - | - | - | 1020.9 | 1020.9 | 1.6 | |
| 02/11:30pm | 12.4 | - | 11.8 | 96 | 0.3 | - | - | - | - | - | 1020.9 | 1020.9 | 1.6 | |
| 02/11:27pm | 12.4 | - | 11.8 | 96 | 0.3 | - | - | - | - | - | 1020.8 | 1020.8 | 1.6 | |
| 02/11:00pm | 12.4 | - | 11.8 | 96 | 0.3 | - | - | - | - | - | 1020.8 | 1020.8 | 1.6 | |
| 02/10:30pm | 12.4 | - | 11.6 | 95 | 0.4 | - | - | - | - | - | 1021.0 | 1021.0 | 1.6 | |
| 02/10:00pm | 12.7 | - | 11.9 | 95 | 0.4 | - | - | - | - | - | 1021.2 | 1021.2 | 1.6 | |
| 02/09:36pm | 12.8 | - | 12.0 | 95 | 0.4 | - | - | - | - | - | 1021.2 | 1021.2 | 1.6 | |
| 02/09:35pm | 12.8 | - | 12.0 | 95 | 0.4 | - | - | - | - | - | 1021.2 | 1021.2 | 1.6 | |
| 02/09:30pm | 12.9 | - | 12.1 | 95 | 0.4 | - | - | - | - | - | 1021.2 | 1021.2 | 1.6 | |
| 02/09:07pm | 12.9 | - | 12.1 | 95 | 0.4 | - | - | - | - | - | 1021.3 | 1021.3 | 1.2 | |
| 02/09:06pm | 12.9 | - | 12.1 | 95 | 0.4 | - | - | - | - | - | 1021.2 | 1021.2 | 1.2 | |
| 02/09:00pm | 12.8 | - | 11.9 | 94 | 0.5 | - | - | - | - | - | 1021.2 | 1021.2 | 1.2 | |
| 02/08:30pm | 12.7 | - | 11.8 | 94 | 0.5 | - | - | - | - | - | 1021.0 | 1021.0 | 1.0 | |
| 02/08:00pm | 12.6 | - | 11.7 | 94 | 0.5 | - | - | - | - | - | 1020.9 | 1020.9 | 1.0 | |
| 02/07:30pm | 13.3 | - | 12.2 | 93 | 0.6 | - | - | - | - | - | 1020.6 | 1020.6 | 1.0 | |
| 02/07:14pm | 13.5 | - | 12.6 | 94 | 0.5 | - | - | - | - | - | 1020.6 | 1020.6 | 1.0 | |
| 02/07:04pm | 13.5 | - | 12.6 | 94 | 0.5 | - | - | - | - | - | 1020.5 | 1020.5 | 1.0 | |
| 02/07:00pm | 13.6 | - | 12.7 | 94 | 0.5 | - | - | - | - | - | 1020.5 | 1020.5 | 1.0 | |
| 02/06:48pm | 13.7 | - | 12.4 | 92 | 0.7 | - | - | - | - | - | 1020.4 | 1020.4 | 1.0 | |
| 02/06:32pm | 14.1 | - | 12.0 | 87 | 1.1 | - | - | - | - | - | 1020.1 | 1020.0 | 0.0 | |
| 02/06:30pm | 14.2 | - | 11.9 | 86 | 1.2 | - | - | - | - | - | 1020.1 | 1020.0 | 0.0 | |
| 02/06:00pm | 14.6 | - | 11.6 | 82 | 1.6 | - | - | - | - | - | 1019.6 | 1019.5 | 0.0 | |
| 02/05:30pm | 14.7 | - | 11.3 | 80 | 1.8 | - | - | - | - | - | 1019.4 | 1019.3 | 0.0 | |
| 02/05:00pm | 15.0 | - | 10.8 | 76 | 2.2 | - | - | - | - | - | 1019.1 | 1019.0 | 0.0 | |
| 02/04:30pm | 15.6 | - | 10.8 | 73 | 2.6 | - | - | - | - | - | 1019.0 | 1018.9 | 0.0 | |
| 02/04:00pm | 15.7 | - | 10.5 | 71 | 2.8 | - | - | - | - | - | 1018.8 | 1018.7 | 0.0 | |
| 02/03:30pm | 16.5 | - | 10.4 | 67 | 3.3 | - | - | - | - | - | 1018.7 | 1018.6 | 0.0 | |
| 02/03:00pm | 15.4 | - | 9.7 | 69 | 3.0 | - | - | - | - | - | 1018.9 | 1018.8 | 0.0 | |
| 02/02:30pm | 15.7 | - | 9.8 | 68 | 3.1 | - | - | - | - | - | 1018.7 | 1018.6 | 0.0 | |
| 02/02:00pm | 16.1 | - | 9.3 | 64 | 3.5 | - | - | - | - | - | 1018.6 | 1018.5 | 0.0 | |
| 02/01:30pm | 16.4 | - | 9.8 | 65 | 3.5 | - | - | - | - | - | 1018.8 | 1018.7 | 0.0 | |
| 02/01:00pm | 15.7 | - | 9.1 | 65 | 3.4 | - | - | - | - | - | 1019.0 | 1018.9 | 0.0 | |
| 02/12:30pm | 15.6 | - | 8.8 | 64 | 3.5 | - | - | - | - | - | 1019.2 | 1019.1 | 0.0 | |
| 02/12:00pm | 15.5 | - | 8.7 | 64 | 3.5 | - | - | - | - | - | 1019.3 | 1019.2 | 0.0 | |
| 02/11:30am | 15.2 | - | 8.2 | 63 | 3.5 | - | - | - | - | - | 1019.6 | 1019.5 | 0.0 | |
| 02/11:00am | 14.9 | - | 6.2 | 56 | 4.2 | - | - | - | - | - | 1019.9 | 1019.8 | 0.0 | |
| 02/10:30am | 14.4 | - | 6.0 | 57 | 4.0 | - | - | - | - | - | 1019.9 | 1019.8 | 0.0 | |
| 02/10:00am | 14.2 | - | 5.3 | 55 | 4.2 | - | - | - | - | - | 1020.3 | 1020.3 | 0.0 | |
| 02/09:30am | 13.9 | - | 7.0 | 63 | 3.4 | - | - | - | - | - | 1020.6 | 1020.6 | 0.0 | |
| 02/09:00am | 13.2 | - | 7.0 | 66 | 3.0 | - | - | - | - | - | 1020.7 | 1020.7 | 0.0 | |
| 02/08:30am | 11.9 | - | 6.6 | 70 | 2.5 | - | - | - | - | - | 1021.0 | 1021.0 | 0.0 | |
| 02/08:00am | 11.1 | - | 7.0 | 76 | 2.0 | - | - | - | - | - | 1020.8 | 1020.8 | 0.0 | |
| 02/07:30am | 9.8 | - | 6.3 | 79 | 1.6 | - | - | - | - | - | 1020.8 | 1020.8 | 0.0 | |
| 02/07:00am | 8.6 | - | 5.7 | 82 | 1.3 | - | - | - | - | - | 1020.7 | 1020.7 | 0.0 | |
| 02/06:30am | 7.8 | - | 5.4 | 85 | 1.1 | - | - | - | - | - | 1020.5 | 1020.5 | 0.0 | |
| 02/06:00am | 7.9 | - | 5.7 | 86 | 1.0 | - | - | - | - | - | 1020.5 | 1020.5 | 0.0 | |
| 02/05:30am | 8.1 | - | 5.7 | 85 | 1.1 | - | - | - | - | - | 1020.5 | 1020.5 | 0.0 | |
| 02/05:00am | 7.7 | - | 5.5 | 86 | 1.0 | - | - | - | - | - | 1020.6 | 1020.6 | 0.0 | |
| 02/04:30am | 7.5 | - | 5.6 | 88 | 0.9 | - | - | - | - | - | 1020.5 | 1020.5 | 0.0 | |
| 02/04:00am | 7.3 | - | 5.3 | 87 | 0.9 | - | - | - | - | - | 1020.2 | 1020.1 | 0.0 | |
| 02/03:30am | 7.2 | - | 5.5 | 89 | 0.8 | - | - | - | - | - | 1020.2 | 1020.1 | 0.0 | |
| 02/03:00am | 7.1 | - | 5.4 | 89 | 0.8 | - | - | - | - | - | 1020.3 | 1020.3 | 0.0 | |
| 02/02:30am | 7.4 | - | 5.9 | 90 | 0.7 | - | - | - | - | - | 1020.4 | 1020.4 | 0.0 | |
| 02/02:00am | 7.1 | - | 5.7 | 91 | 0.6 | - | - | - | - | - | 1020.7 | 1020.7 | 0.0 | |
| 02/01:30am | 7.7 | - | 6.0 | 89 | 0.8 | - | - | - | - | - | 1020.9 | 1020.9 | 0.0 | |
| 02/01:00am | 7.5 | - | 6.0 | 90 | 0.7 | - | - | - | - | - | 1021.0 | 1021.0 | 0.0 | |
| 02/12:30am | 7.6 | - | 5.9 | 89 | 0.8 | - | - | - | - | - | 1021.2 | 1021.2 | 0.0 | |
| 02/12:00am | 7.8 | - | 6.1 | 89 | 0.8 | - | - | - | - | - | 1021.4 | 1021.4 | 0.0 | |
| Date/Time WST |
Temp °C |
App Temp °C |
Dew Point °C |
Rel Hum % |
Delta-T °C |
Wind | Press QNH hPa |
Press MSL hPa |
Rain since 9am mm |
|||||
|---|---|---|---|---|---|---|---|---|---|---|---|---|---|---|
| Dir | Spd km/h |
Gust km/h |
Spd kts |
Gust kts |
||||||||||
| 01/11:30pm | 7.8 | - | 6.3 | 90 | 0.7 | - | - | - | - | - | 1021.5 | 1021.5 | 0.0 | |
| 01/11:00pm | 8.0 | - | 6.3 | 89 | 0.8 | - | - | - | - | - | 1021.8 | 1021.8 | 0.0 | |
| 01/10:30pm | 8.3 | - | 6.6 | 89 | 0.8 | - | - | - | - | - | 1022.1 | 1022.1 | 0.0 | |
| 01/10:00pm | 8.6 | - | 6.6 | 87 | 0.9 | - | - | - | - | - | 1022.3 | 1022.3 | 0.0 | |
| 01/09:30pm | 8.5 | - | 6.6 | 88 | 0.9 | - | - | - | - | - | 1022.6 | 1022.6 | 0.0 | |
| 01/09:00pm | 9.3 | - | 7.3 | 87 | 0.9 | - | - | - | - | - | 1022.8 | 1022.8 | 0.0 | |
| 01/08:30pm | 9.4 | - | 7.2 | 86 | 1.0 | - | - | - | - | - | 1022.9 | 1022.9 | 0.0 | |
| 01/08:00pm | 9.7 | - | 7.1 | 84 | 1.2 | - | - | - | - | - | 1022.9 | 1022.9 | 0.0 | |
| 01/07:30pm | 10.0 | - | 7.8 | 86 | 1.1 | - | - | - | - | - | 1023.0 | 1023.0 | 0.0 | |
| 01/07:00pm | 11.2 | - | 7.9 | 80 | 1.6 | - | - | - | - | - | 1022.9 | 1022.9 | 0.0 | |
| 01/06:30pm | 11.7 | - | 8.4 | 80 | 1.6 | - | - | - | - | - | 1022.7 | 1022.7 | 0.0 | |
| 01/06:00pm | 12.1 | - | 8.8 | 80 | 1.6 | - | - | - | - | - | 1022.6 | 1022.6 | 0.0 | |
| 01/05:30pm | 12.6 | - | 8.7 | 77 | 2.0 | - | - | - | - | - | 1022.6 | 1022.6 | 0.0 | |
| 01/05:00pm | 13.8 | - | 8.8 | 72 | 2.5 | - | - | - | - | - | 1022.5 | 1022.5 | 0.0 | |
| 01/04:30pm | 14.8 | - | 9.2 | 69 | 2.9 | - | - | - | - | - | 1022.5 | 1022.5 | 0.0 | |
| 01/04:00pm | 14.9 | - | 8.6 | 66 | 3.2 | - | - | - | - | - | 1022.4 | 1022.4 | 0.0 | |
| 01/03:30pm | 14.8 | - | 8.1 | 64 | 3.4 | - | - | - | - | - | 1022.3 | 1022.3 | 0.0 | |
| 01/03:00pm | 15.5 | - | 9.0 | 65 | 3.3 | - | - | - | - | - | 1022.1 | 1022.1 | 0.0 | |
| 01/02:30pm | 15.4 | - | 9.1 | 66 | 3.3 | - | - | - | - | - | 1022.2 | 1022.2 | 0.0 | |
| 01/02:00pm | 15.4 | - | 9.5 | 68 | 3.1 | - | - | - | - | - | 1022.2 | 1022.2 | 0.0 | |
| 01/01:30pm | 15.2 | - | 10.2 | 72 | 2.6 | - | - | - | - | - | 1022.5 | 1022.5 | 0.0 | |
| 01/01:00pm | 14.3 | - | 9.5 | 73 | 2.5 | - | - | - | - | - | 1022.8 | 1022.8 | 0.0 | |
| 01/12:30pm | 14.8 | - | 10.2 | 74 | 2.4 | - | - | - | - | - | 1022.8 | 1022.8 | 0.0 | |
| 01/12:00pm | 15.3 | - | 11.1 | 76 | 2.2 | - | - | - | - | - | 1023.0 | 1023.0 | 0.0 | |
| 01/11:30am | 13.9 | - | 11.1 | 83 | 1.5 | - | - | - | - | - | 1023.3 | 1023.3 | 0.0 | |
| 01/11:00am | 14.2 | - | 8.8 | 70 | 2.7 | - | - | - | - | - | 1023.3 | 1023.3 | 0.0 | |
| 01/10:30am | 13.9 | - | 10.7 | 81 | 1.7 | - | - | - | - | - | 1023.4 | 1023.4 | 0.0 | |
| 01/10:00am | 13.4 | - | 9.8 | 79 | 1.9 | - | - | - | - | - | 1023.5 | 1023.5 | 0.0 | |
| 01/09:30am | 12.8 | - | 9.6 | 81 | 1.6 | - | - | - | - | - | 1023.5 | 1023.5 | 0.0 | |
| 01/09:00am | 12.5 | - | 10.6 | 88 | 1.0 | - | - | - | - | - | 1023.6 | 1023.6 | 2.2 | |
| 01/08:46am | 12.2 | - | 10.9 | 92 | 0.7 | - | - | - | - | - | 1023.4 | 1023.4 | 2.2 | |
| 01/08:30am | 12.0 | - | 10.7 | 92 | 0.7 | - | - | - | - | - | 1023.4 | 1023.4 | 2.2 | |
| 01/08:23am | 12.1 | - | 10.7 | 91 | 0.7 | - | - | - | - | - | 1023.3 | 1023.3 | 2.2 | |
| 01/08:00am | 12.3 | - | 10.9 | 91 | 0.7 | - | - | - | - | - | 1023.0 | 1023.0 | 2.2 | |
| 01/07:30am | 11.9 | - | 10.5 | 91 | 0.7 | - | - | - | - | - | 1022.9 | 1023.0 | 2.2 | |
| 01/07:00am | 11.4 | - | 10.1 | 92 | 0.7 | - | - | - | - | - | 1022.3 | 1022.4 | 2.2 | |
| 01/06:30am | 11.2 | - | 10.1 | 93 | 0.6 | - | - | - | - | - | 1022.0 | 1022.1 | 2.2 | |
| 01/06:00am | 11.4 | - | 10.1 | 92 | 0.7 | - | - | - | - | - | 1021.7 | 1021.7 | 2.2 | |
| 01/05:30am | 11.6 | - | 10.3 | 92 | 0.7 | - | - | - | - | - | 1021.5 | 1021.5 | 2.2 | |
| 01/05:00am | 11.5 | - | 10.1 | 91 | 0.7 | - | - | - | - | - | 1021.2 | 1021.2 | 2.2 | |
| 01/04:30am | 11.5 | - | 10.1 | 91 | 0.7 | - | - | - | - | - | 1021.0 | 1021.0 | 2.2 | |
| 01/04:00am | 11.6 | - | 10.2 | 91 | 0.7 | - | - | - | - | - | 1020.8 | 1020.8 | 2.2 | |
| 01/03:30am | 11.7 | - | 10.4 | 92 | 0.7 | - | - | - | - | - | 1020.7 | 1020.7 | 2.2 | |
| 01/03:00am | 11.7 | - | 10.6 | 93 | 0.6 | - | - | - | - | - | 1020.8 | 1020.8 | 2.2 | |
| 01/02:30am | 11.3 | - | 10.4 | 94 | 0.5 | - | - | - | - | - | 1020.9 | 1020.9 | 2.2 | |
| 01/02:00am | 11.3 | - | 10.4 | 94 | 0.5 | - | - | - | - | - | 1021.3 | 1021.3 | 2.2 | |
| 01/01:49am | 11.2 | - | 10.4 | 95 | 0.4 | - | - | - | - | - | 1021.3 | 1021.3 | 2.2 | |
| 01/01:40am | 11.2 | - | 10.6 | 96 | 0.3 | - | - | - | - | - | 1021.5 | 1021.5 | 2.2 | |
| 01/01:30am | 11.3 | - | 10.7 | 96 | 0.3 | - | - | - | - | - | 1021.6 | 1021.6 | 2.2 | |
| 01/01:00am | 11.6 | - | 10.8 | 95 | 0.4 | - | - | - | - | - | 1021.5 | 1021.5 | 1.4 | |
| 01/12:30am | 12.2 | - | 11.3 | 94 | 0.5 | - | - | - | - | - | 1020.9 | 1020.9 | 1.0 | |
| 01/12:27am | 12.2 | - | 11.3 | 94 | 0.5 | - | - | - | - | - | 1020.9 | 1020.9 | 1.0 | |
| 01/12:21am | 12.3 | - | 11.5 | 95 | 0.4 | - | - | - | - | - | 1020.8 | 1020.8 | 0.8 | |
| 01/12:06am | 12.7 | - | 11.9 | 95 | 0.4 | - | - | - | - | - | 1020.6 | 1020.6 | 0.6 | |
| 01/12:00am | 12.8 | - | 12.0 | 95 | 0.4 | - | - | - | - | - | 1020.5 | 1020.5 | 0.6 | |
| Date/Time WST |
Temp °C |
App Temp °C |
Dew Point °C |
Rel Hum % |
Delta-T °C |
Wind | Press QNH hPa |
Press MSL hPa |
Rain since 9am mm |
||||
|---|---|---|---|---|---|---|---|---|---|---|---|---|---|
| Dir | Spd km/h |
Gust km/h |
Spd kts |
Gust kts |
|||||||||
| 31/11:48pm | 12.8 | - | 12.0 | 95 | 0.4 | - | - | - | - | - | 1020.3 | 1020.3 | 0.6 |
| 31/11:30pm | 13.3 | - | 12.4 | 94 | 0.5 | - | - | - | - | - | 1020.0 | 1020.0 | 0.4 |
| 31/11:21pm | 13.7 | - | 12.6 | 93 | 0.6 | - | - | - | - | - | 1019.7 | 1019.7 | 0.0 |
| 31/11:00pm | 15.0 | - | 13.9 | 93 | 0.6 | - | - | - | - | - | 1019.3 | 1019.3 | 0.0 |
| 31/10:45pm | 15.2 | - | 13.6 | 90 | 0.9 | - | - | - | - | - | 1018.9 | 1018.9 | 0.0 |
| 31/10:30pm | 14.6 | - | 12.1 | 85 | 1.4 | - | - | - | - | - | 1018.7 | 1018.7 | 0.0 |
| 31/10:00pm | 15.0 | - | 13.2 | 89 | 1.0 | - | - | - | - | - | 1018.3 | 1018.3 | 0.0 |
| 31/09:30pm | 14.2 | - | 13.4 | 95 | 0.4 | - | - | - | - | - | 1018.3 | 1018.3 | 0.0 |
| 31/09:00pm | 14.1 | - | 13.3 | 95 | 0.4 | - | - | - | - | - | 1018.2 | 1018.2 | 0.0 |
| 31/08:30pm | 13.4 | - | 12.5 | 94 | 0.5 | - | - | - | - | - | 1018.2 | 1018.2 | 0.0 |
| 31/08:00pm | 13.8 | - | 12.7 | 93 | 0.6 | - | - | - | - | - | 1018.0 | 1018.0 | 0.0 |
| 31/07:30pm | 15.1 | - | 13.3 | 89 | 1.0 | - | - | - | - | - | 1017.8 | 1017.8 | 0.0 |
| 31/07:00pm | 15.5 | - | 13.3 | 87 | 1.2 | - | - | - | - | - | 1017.5 | 1017.5 | 0.0 |
| 31/06:30pm | 15.9 | - | 13.7 | 87 | 1.2 | - | - | - | - | - | 1017.0 | 1017.0 | 0.0 |
| 31/06:00pm | 16.5 | - | 14.2 | 86 | 1.3 | - | - | - | - | - | 1016.3 | 1016.4 | 0.0 |
| 31/05:30pm | 17.7 | - | 14.8 | 83 | 1.7 | - | - | - | - | - | 1015.7 | 1015.7 | 0.0 |
| 31/05:00pm | 18.9 | - | 15.2 | 79 | 2.2 | - | - | - | - | - | 1015.6 | 1015.6 | 0.0 |
| 31/04:30pm | 19.9 | - | 15.3 | 75 | 2.7 | - | - | - | - | - | 1015.1 | 1015.1 | 0.0 |
| 31/04:00pm | 21.2 | - | 15.3 | 69 | 3.5 | - | - | - | - | - | 1014.7 | 1014.7 | 0.0 |
| 31/03:30pm | 22.4 | - | 15.7 | 66 | 4.0 | - | - | - | - | - | 1014.6 | 1014.6 | 0.0 |
| 31/03:00pm | 24.5 | - | 14.9 | 55 | 5.8 | - | - | - | - | - | 1014.5 | 1014.5 | 0.0 |
| 31/02:30pm | 24.8 | - | 16.0 | 58 | 5.4 | - | - | - | - | - | 1014.5 | 1014.5 | 0.0 |
| 31/02:00pm | 23.5 | - | 13.9 | 55 | 5.6 | - | - | - | - | - | 1014.4 | 1014.4 | 0.0 |
| 31/01:30pm | 25.2 | - | 13.4 | 48 | 6.9 | - | - | - | - | - | 1014.6 | 1014.6 | 0.0 |
| 31/01:00pm | 25.2 | - | 12.8 | 46 | 7.2 | - | - | - | - | - | 1014.8 | 1014.8 | 0.0 |
| 31/12:30pm | 24.8 | - | 13.7 | 50 | 6.6 | - | - | - | - | - | 1015.1 | 1015.1 | 0.0 |
| 31/12:00pm | 24.3 | - | 14.7 | 55 | 5.7 | - | - | - | - | - | 1015.6 | 1015.6 | 0.0 |
| 31/11:30am | 23.6 | - | 15.1 | 59 | 5.1 | - | - | - | - | - | 1016.2 | 1016.3 | 0.0 |
| 31/11:00am | 22.7 | - | 13.7 | 56 | 5.3 | - | - | - | - | - | 1016.8 | 1016.8 | 0.0 |
| 31/10:30am | 22.5 | - | 13.8 | 58 | 5.1 | - | - | - | - | - | 1017.3 | 1017.3 | 0.0 |
| 31/10:00am | 21.1 | - | 13.0 | 60 | 4.6 | - | - | - | - | - | 1017.7 | 1017.7 | 0.0 |
| 31/09:30am | 20.2 | - | 13.4 | 65 | 3.9 | - | - | - | - | - | 1018.0 | 1018.0 | 0.0 |
| 31/09:00am | 19.2 | - | 12.9 | 67 | 3.6 | - | - | - | - | - | 1018.3 | 1018.3 | 0.0 |
| 31/08:30am | 18.0 | - | 12.2 | 69 | 3.2 | - | - | - | - | - | 1018.5 | 1018.5 | 0.0 |
| 31/08:00am | 16.9 | - | 11.8 | 72 | 2.8 | - | - | - | - | - | 1018.7 | 1018.7 | 0.0 |
| 31/07:30am | 16.0 | - | 11.8 | 76 | 2.3 | - | - | - | - | - | 1018.9 | 1018.9 | 0.0 |
| 31/07:03am | 15.2 | - | 11.6 | 79 | 2.0 | - | - | - | - | - | 1019.1 | 1019.1 | 0.0 |
| 31/07:00am | 15.2 | - | 11.4 | 78 | 2.0 | - | - | - | - | - | 1019.0 | 1019.0 | 0.0 |
| 31/06:44am | 15.0 | - | 11.4 | 79 | 1.9 | - | - | - | - | - | 1018.9 | 1018.9 | 0.0 |
| 31/06:30am | 14.9 | - | 11.3 | 79 | 1.9 | - | - | - | - | - | 1019.0 | 1019.0 | 0.0 |
| 31/06:00am | 15.0 | - | 11.4 | 79 | 1.9 | - | - | - | - | - | 1018.7 | 1018.7 | 0.0 |
| 31/05:30am | 14.8 | - | 11.6 | 81 | 1.7 | - | - | - | - | - | 1018.7 | 1018.7 | 0.0 |
| 31/05:00am | 14.8 | - | 11.9 | 83 | 1.6 | - | - | - | - | - | 1018.8 | 1018.8 | 0.0 |
| 31/04:30am | 15.1 | - | 11.9 | 81 | 1.7 | - | - | - | - | - | 1018.9 | 1018.9 | 0.0 |
| 31/04:00am | 14.9 | - | 12.2 | 84 | 1.5 | - | - | - | - | - | 1018.8 | 1018.8 | 0.0 |
| 31/03:30am | 15.0 | - | 12.1 | 83 | 1.6 | - | - | - | - | - | 1019.1 | 1019.1 | 0.0 |
Other formats
Comma delimited format used in spreadsheet applications
http://www.bom.gov.au/fwo/IDW60801/IDW60801.95638.axf
JavaScript Object Notation format (JSON) in row-major order
http://www.bom.gov.au/fwo/IDW60801/IDW60801.95638.json
Data quality
Most of these data are generated automatically and are frequently updated. Quality checks on data are not normally performed. It is possible for incorrect values to appear. Refer to information at About Latest Weather Observations and please check the disclaimer before using these data.
